sensor_id;sensor_type;location;lat;lon;timestamp;P1;durP1;ratioP1;P2;durP2;ratioP2
1360;SDS011;674;45.552;-122.600;2023-05-20T00:01:24;5.73;;;5.17;;
1360;SDS011;674;45.552;-122.600;2023-05-20T00:03:53;7.23;;;4.90;;
1360;SDS011;674;45.552;-122.600;2023-05-20T00:06:22;7.43;;;4.67;;
1360;SDS011;674;45.552;-122.600;2023-05-20T00:08:50;8.27;;;5.10;;
1360;SDS011;674;45.552;-122.600;2023-05-20T00:11:19;7.67;;;4.70;;
1360;SDS011;674;45.552;-122.600;2023-05-20T00:13:47;6.67;;;4.57;;
1360;SDS011;674;45.552;-122.600;2023-05-20T00:16:16;7.27;;;5.50;;
1360;SDS011;674;45.552;-122.600;2023-05-20T00:18:44;5.73;;;4.80;;
1360;SDS011;674;45.552;-122.600;2023-05-20T00:21:12;5.97;;;5.33;;
1360;SDS011;674;45.552;-122.600;2023-05-20T00:23:41;5.10;;;4.60;;
1360;SDS011;674;45.552;-122.600;2023-05-20T00:26:09;6.00;;;5.40;;
1360;SDS011;674;45.552;-122.600;2023-05-20T00:28:38;5.30;;;4.57;;
1360;SDS011;674;45.552;-122.600;2023-05-20T00:31:06;5.60;;;4.70;;
1360;SDS011;674;45.552;-122.600;2023-05-20T00:33:35;4.77;;;4.30;;
1360;SDS011;674;45.552;-122.600;2023-05-20T00:36:03;6.37;;;4.40;;
1360;SDS011;674;45.552;-122.600;2023-05-20T00:38:35;5.70;;;5.00;;
1360;SDS011;674;45.552;-122.600;2023-05-20T00:41:03;7.47;;;4.47;;
1360;SDS011;674;45.552;-122.600;2023-05-20T00:43:31;10.50;;;5.47;;
1360;SDS011;674;45.552;-122.600;2023-05-20T00:46:00;5.43;;;4.87;;
1360;SDS011;674;45.552;-122.600;2023-05-20T00:48:29;6.00;;;5.10;;
1360;SDS011;674;45.552;-122.600;2023-05-20T00:51:05;6.40;;;4.43;;
1360;SDS011;674;45.552;-122.600;2023-05-20T00:53:34;4.57;;;4.17;;
1360;SDS011;674;45.552;-122.600;2023-05-20T00:56:03;6.27;;;4.37;;
1360;SDS011;674;45.552;-122.600;2023-05-20T00:58:33;6.33;;;4.70;;
1360;SDS011;674;45.552;-122.600;2023-05-20T01:01:04;5.40;;;4.40;;
1360;SDS011;674;45.552;-122.600;2023-05-20T01:03:33;6.33;;;4.63;;
1360;SDS011;674;45.552;-122.600;2023-05-20T01:06:02;5.30;;;4.80;;
1360;SDS011;674;45.552;-122.600;2023-05-20T01:08:31;5.20;;;4.70;;
1360;SDS011;674;45.552;-122.600;2023-05-20T01:13:45;6.87;;;4.63;;
1360;SDS011;674;45.552;-122.600;2023-05-20T01:16:20;5.60;;;4.80;;
1360;SDS011;674;45.552;-122.600;2023-05-20T01:18:55;6.23;;;4.30;;
1360;SDS011;674;45.552;-122.600;2023-05-20T01:21:29;5.57;;;4.30;;
1360;SDS011;674;45.552;-122.600;2023-05-20T01:23:58;4.97;;;4.47;;
1360;SDS011;674;45.552;-122.600;2023-05-20T01:26:33;4.50;;;4.10;;
1360;SDS011;674;45.552;-122.600;2023-05-20T01:29:04;5.37;;;3.90;;
1360;SDS011;674;45.552;-122.600;2023-05-20T01:31:33;5.60;;;4.20;;
1360;SDS011;674;45.552;-122.600;2023-05-20T01:34:05;4.50;;;4.10;;
1360;SDS011;674;45.552;-122.600;2023-05-20T01:36:34;8.80;;;4.20;;
1360;SDS011;674;45.552;-122.600;2023-05-20T01:39:03;8.80;;;4.40;;
1360;SDS011;674;45.552;-122.600;2023-05-20T01:41:33;6.33;;;4.33;;
1360;SDS011;674;45.552;-122.600;2023-05-20T01:44:03;3.77;;;3.47;;
1360;SDS011;674;45.552;-122.600;2023-05-20T01:46:32;6.03;;;4.10;;
1360;SDS011;674;45.552;-122.600;2023-05-20T01:49:01;4.70;;;3.73;;
1360;SDS011;674;45.552;-122.600;2023-05-20T01:51:29;9.23;;;4.77;;
1360;SDS011;674;45.552;-122.600;2023-05-20T01:54:01;5.53;;;3.97;;
1360;SDS011;674;45.552;-122.600;2023-05-20T01:56:30;5.17;;;4.43;;
1360;SDS011;674;45.552;-122.600;2023-05-20T01:58:58;6.03;;;4.20;;
1360;SDS011;674;45.552;-122.600;2023-05-20T02:01:27;5.30;;;4.80;;
1360;SDS011;674;45.552;-122.600;2023-05-20T02:03:55;4.90;;;4.40;;
1360;SDS011;674;45.552;-122.600;2023-05-20T02:06:24;6.30;;;4.10;;
1360;SDS011;674;45.552;-122.600;2023-05-20T02:08:53;4.40;;;3.80;;
1360;SDS011;674;45.552;-122.600;2023-05-20T02:11:21;4.80;;;4.40;;
1360;SDS011;674;45.552;-122.600;2023-05-20T02:13:50;6.00;;;5.20;;
1360;SDS011;674;45.552;-122.600;2023-05-20T02:16:18;5.73;;;4.43;;
1360;SDS011;674;45.552;-122.600;2023-05-20T02:18:47;5.60;;;4.20;;
1360;SDS011;674;45.552;-122.600;2023-05-20T02:21:17;5.43;;;4.27;;
1360;SDS011;674;45.552;-122.600;2023-05-20T02:23:46;5.10;;;4.63;;
1360;SDS011;674;45.552;-122.600;2023-05-20T02:26:14;5.63;;;5.13;;
1360;SDS011;674;45.552;-122.600;2023-05-20T02:28:43;7.57;;;6.80;;
1360;SDS011;674;45.552;-122.600;2023-05-20T02:31:13;6.63;;;5.17;;
1360;SDS011;674;45.552;-122.600;2023-05-20T02:33:41;5.57;;;4.90;;
1360;SDS011;674;45.552;-122.600;2023-05-20T02:36:09;6.17;;;5.57;;
1360;SDS011;674;45.552;-122.600;2023-05-20T02:38:38;7.37;;;5.20;;
1360;SDS011;674;45.552;-122.600;2023-05-20T02:41:06;6.83;;;4.57;;
1360;SDS011;674;45.552;-122.600;2023-05-20T02:43:35;5.07;;;4.60;;
1360;SDS011;674;45.552;-122.600;2023-05-20T02:46:04;6.70;;;6.00;;
1360;SDS011;674;45.552;-122.600;2023-05-20T02:48:32;5.60;;;4.97;;
1360;SDS011;674;45.552;-122.600;2023-05-20T02:51:04;5.50;;;4.50;;
1360;SDS011;674;45.552;-122.600;2023-05-20T02:53:32;5.23;;;4.73;;
1360;SDS011;674;45.552;-122.600;2023-05-20T02:56:04;7.57;;;4.70;;
1360;SDS011;674;45.552;-122.600;2023-05-20T02:58:34;6.07;;;5.47;;
1360;SDS011;674;45.552;-122.600;2023-05-20T03:01:03;6.77;;;5.50;;
1360;SDS011;674;45.552;-122.600;2023-05-20T03:03:33;6.33;;;5.03;;
1360;SDS011;674;45.552;-122.600;2023-05-20T03:06:01;6.00;;;4.93;;
1360;SDS011;674;45.552;-122.600;2023-05-20T03:08:30;5.60;;;4.70;;
1360;SDS011;674;45.552;-122.600;2023-05-20T03:11:00;7.67;;;5.03;;
1360;SDS011;674;45.552;-122.600;2023-05-20T03:13:30;6.20;;;4.70;;
1360;SDS011;674;45.552;-122.600;2023-05-20T03:15:59;5.53;;;4.93;;
1360;SDS011;674;45.552;-122.600;2023-05-20T03:18:28;5.73;;;4.80;;
1360;SDS011;674;45.552;-122.600;2023-05-20T03:20:57;5.87;;;5.20;;
1360;SDS011;674;45.552;-122.600;2023-05-20T03:23:25;6.70;;;4.83;;
1360;SDS011;674;45.552;-122.600;2023-05-20T03:25:54;5.70;;;5.13;;
1360;SDS011;674;45.552;-122.600;2023-05-20T03:28:24;6.00;;;5.20;;
1360;SDS011;674;45.552;-122.600;2023-05-20T03:30:53;8.27;;;5.30;;
1360;SDS011;674;45.552;-122.600;2023-05-20T03:33:21;6.30;;;5.23;;
1360;SDS011;674;45.552;-122.600;2023-05-20T03:35:52;5.67;;;5.07;;
1360;SDS011;674;45.552;-122.600;2023-05-20T03:38:20;7.87;;;4.67;;
1360;SDS011;674;45.552;-122.600;2023-05-20T03:40:49;5.43;;;4.40;;
1360;SDS011;674;45.552;-122.600;2023-05-20T03:43:17;5.50;;;5.00;;
1360;SDS011;674;45.552;-122.600;2023-05-20T03:45:46;6.37;;;5.77;;
1360;SDS011;674;45.552;-122.600;2023-05-20T03:48:14;5.30;;;4.57;;
1360;SDS011;674;45.552;-122.600;2023-05-20T03:50:43;6.53;;;5.33;;
1360;SDS011;674;45.552;-122.600;2023-05-20T03:53:12;7.77;;;5.30;;
1360;SDS011;674;45.552;-122.600;2023-05-20T03:55:40;10.93;;;9.00;;
1360;SDS011;674;45.552;-122.600;2023-05-20T03:58:09;8.60;;;6.17;;
1360;SDS011;674;45.552;-122.600;2023-05-20T04:00:39;6.83;;;5.20;;
1360;SDS011;674;45.552;-122.600;2023-05-20T04:03:08;8.27;;;4.90;;
1360;SDS011;674;45.552;-122.600;2023-05-20T04:05:37;8.63;;;4.53;;
1360;SDS011;674;45.552;-122.600;2023-05-20T04:08:06;5.17;;;4.67;;
1360;SDS011;674;45.552;-122.600;2023-05-20T04:10:36;10.90;;;4.57;;
1360;SDS011;674;45.552;-122.600;2023-05-20T04:13:04;6.93;;;5.30;;
1360;SDS011;674;45.552;-122.600;2023-05-20T04:15:36;6.77;;;4.57;;
1360;SDS011;674;45.552;-122.600;2023-05-20T04:18:05;5.93;;;4.70;;
1360;SDS011;674;45.552;-122.600;2023-05-20T04:20:33;7.50;;;4.80;;
1360;SDS011;674;45.552;-122.600;2023-05-20T04:23:02;4.93;;;4.13;;
1360;SDS011;674;45.552;-122.600;2023-05-20T04:25:30;5.90;;;4.77;;
1360;SDS011;674;45.552;-122.600;2023-05-20T04:27:59;9.07;;;4.93;;
1360;SDS011;674;45.552;-122.600;2023-05-20T04:30:28;6.67;;;4.27;;
1360;SDS011;674;45.552;-122.600;2023-05-20T04:32:59;4.47;;;3.63;;
1360;SDS011;674;45.552;-122.600;2023-05-20T04:35:31;5.70;;;4.97;;
1360;SDS011;674;45.552;-122.600;2023-05-20T04:38:01;4.63;;;3.60;;
1360;SDS011;674;45.552;-122.600;2023-05-20T04:40:30;6.17;;;4.20;;
1360;SDS011;674;45.552;-122.600;2023-05-20T04:42:58;5.60;;;4.10;;
1360;SDS011;674;45.552;-122.600;2023-05-20T04:45:27;6.50;;;4.57;;
1360;SDS011;674;45.552;-122.600;2023-05-20T04:47:56;6.00;;;4.33;;
1360;SDS011;674;45.552;-122.600;2023-05-20T04:50:24;7.07;;;4.20;;
1360;SDS011;674;45.552;-122.600;2023-05-20T04:52:53;8.50;;;4.40;;
1360;SDS011;674;45.552;-122.600;2023-05-20T04:55:21;7.60;;;4.10;;
1360;SDS011;674;45.552;-122.600;2023-05-20T04:57:51;6.00;;;4.60;;
1360;SDS011;674;45.552;-122.600;2023-05-20T05:00:19;5.23;;;3.80;;
1360;SDS011;674;45.552;-122.600;2023-05-20T05:02:47;6.60;;;4.33;;
1360;SDS011;674;45.552;-122.600;2023-05-20T05:05:16;7.03;;;4.13;;
1360;SDS011;674;45.552;-122.600;2023-05-20T05:07:44;4.93;;;4.00;;
1360;SDS011;674;45.552;-122.600;2023-05-20T05:10:13;6.40;;;4.20;;
1360;SDS011;674;45.552;-122.600;2023-05-20T05:12:42;10.73;;;4.80;;
1360;SDS011;674;45.552;-122.600;2023-05-20T05:15:10;6.73;;;3.53;;
1360;SDS011;674;45.552;-122.600;2023-05-20T05:17:39;4.77;;;4.13;;
1360;SDS011;674;45.552;-122.600;2023-05-20T05:20:07;5.13;;;4.07;;
1360;SDS011;674;45.552;-122.600;2023-05-20T05:22:36;6.27;;;4.30;;
1360;SDS011;674;45.552;-122.600;2023-05-20T05:25:06;7.57;;;4.70;;
1360;SDS011;674;45.552;-122.600;2023-05-20T05:27:35;6.00;;;4.00;;
1360;SDS011;674;45.552;-122.600;2023-05-20T05:30:04;7.90;;;4.60;;
1360;SDS011;674;45.552;-122.600;2023-05-20T05:32:34;11.07;;;3.90;;
1360;SDS011;674;45.552;-122.600;2023-05-20T05:35:04;7.13;;;3.80;;
1360;SDS011;674;45.552;-122.600;2023-05-20T05:37:33;4.90;;;4.17;;
1360;SDS011;674;45.552;-122.600;2023-05-20T05:40:02;5.80;;;4.60;;
1360;SDS011;674;45.552;-122.600;2023-05-20T05:42:31;6.40;;;4.23;;
1360;SDS011;674;45.552;-122.600;2023-05-20T05:44:59;6.37;;;4.10;;
1360;SDS011;674;45.552;-122.600;2023-05-20T05:47:27;5.87;;;4.60;;
1360;SDS011;674;45.552;-122.600;2023-05-20T05:49:58;7.20;;;4.87;;
1360;SDS011;674;45.552;-122.600;2023-05-20T05:52:27;6.63;;;4.70;;
1360;SDS011;674;45.552;-122.600;2023-05-20T05:54:55;7.43;;;4.30;;
1360;SDS011;674;45.552;-122.600;2023-05-20T05:57:23;5.70;;;3.93;;
1360;SDS011;674;45.552;-122.600;2023-05-20T05:59:52;5.70;;;5.00;;
1360;SDS011;674;45.552;-122.600;2023-05-20T06:02:20;6.93;;;4.50;;
1360;SDS011;674;45.552;-122.600;2023-05-20T06:04:49;9.60;;;5.07;;
1360;SDS011;674;45.552;-122.600;2023-05-20T06:07:18;6.30;;;4.73;;
1360;SDS011;674;45.552;-122.600;2023-05-20T06:09:46;6.43;;;5.10;;
1360;SDS011;674;45.552;-122.600;2023-05-20T06:12:14;8.23;;;4.60;;
1360;SDS011;674;45.552;-122.600;2023-05-20T06:14:43;5.97;;;4.03;;
1360;SDS011;674;45.552;-122.600;2023-05-20T06:17:11;6.60;;;4.53;;
1360;SDS011;674;45.552;-122.600;2023-05-20T06:19:39;9.57;;;5.93;;
1360;SDS011;674;45.552;-122.600;2023-05-20T06:22:08;5.43;;;4.37;;
1360;SDS011;674;45.552;-122.600;2023-05-20T06:24:36;8.70;;;4.40;;
1360;SDS011;674;45.552;-122.600;2023-05-20T06:27:05;6.63;;;4.47;;
1360;SDS011;674;45.552;-122.600;2023-05-20T06:29:33;5.53;;;4.60;;
1360;SDS011;674;45.552;-122.600;2023-05-20T06:32:02;5.50;;;4.57;;
1360;SDS011;674;45.552;-122.600;2023-05-20T06:34:30;6.57;;;4.00;;
1360;SDS011;674;45.552;-122.600;2023-05-20T06:36:58;11.43;;;4.97;;
1360;SDS011;674;45.552;-122.600;2023-05-20T06:39:27;6.90;;;4.53;;
1360;SDS011;674;45.552;-122.600;2023-05-20T06:41:55;7.60;;;4.00;;
1360;SDS011;674;45.552;-122.600;2023-05-20T06:44:24;9.60;;;4.50;;
1360;SDS011;674;45.552;-122.600;2023-05-20T06:46:52;4.90;;;4.37;;
1360;SDS011;674;45.552;-122.600;2023-05-20T06:49:20;8.17;;;5.90;;
1360;SDS011;674;45.552;-122.600;2023-05-20T06:51:50;10.77;;;5.00;;
1360;SDS011;674;45.552;-122.600;2023-05-20T06:54:18;8.53;;;5.03;;
1360;SDS011;674;45.552;-122.600;2023-05-20T06:56:48;6.00;;;4.77;;
1360;SDS011;674;45.552;-122.600;2023-05-20T06:59:16;5.53;;;4.83;;
1360;SDS011;674;45.552;-122.600;2023-05-20T07:01:44;5.90;;;4.77;;
1360;SDS011;674;45.552;-122.600;2023-05-20T07:04:13;6.77;;;4.80;;
1360;SDS011;674;45.552;-122.600;2023-05-20T07:06:42;6.60;;;4.80;;
1360;SDS011;674;45.552;-122.600;2023-05-20T07:09:10;6.03;;;4.17;;
1360;SDS011;674;45.552;-122.600;2023-05-20T07:11:38;7.00;;;4.10;;
1360;SDS011;674;45.552;-122.600;2023-05-20T07:14:07;5.00;;;3.97;;
1360;SDS011;674;45.552;-122.600;2023-05-20T07:16:35;7.43;;;4.33;;
1360;SDS011;674;45.552;-122.600;2023-05-20T07:19:04;7.43;;;4.80;;
1360;SDS011;674;45.552;-122.600;2023-05-20T07:21:32;5.93;;;4.70;;
1360;SDS011;674;45.552;-122.600;2023-05-20T07:24:00;6.90;;;4.20;;
1360;SDS011;674;45.552;-122.600;2023-05-20T07:26:29;8.57;;;4.83;;
1360;SDS011;674;45.552;-122.600;2023-05-20T07:28:59;6.60;;;4.50;;
1360;SDS011;674;45.552;-122.600;2023-05-20T07:31:29;7.47;;;3.83;;
1360;SDS011;674;45.552;-122.600;2023-05-20T07:33:57;7.27;;;4.37;;
1360;SDS011;674;45.552;-122.600;2023-05-20T07:36:26;5.87;;;4.10;;
1360;SDS011;674;45.552;-122.600;2023-05-20T07:38:55;6.30;;;4.67;;
1360;SDS011;674;45.552;-122.600;2023-05-20T07:41:30;5.40;;;4.37;;
1360;SDS011;674;45.552;-122.600;2023-05-20T07:44:00;5.67;;;4.30;;
1360;SDS011;674;45.552;-122.600;2023-05-20T07:46:30;6.10;;;3.90;;
1360;SDS011;674;45.552;-122.600;2023-05-20T07:48:59;4.47;;;4.03;;
1360;SDS011;674;45.552;-122.600;2023-05-20T07:51:27;7.20;;;4.80;;
1360;SDS011;674;45.552;-122.600;2023-05-20T07:53:56;5.77;;;3.97;;
1360;SDS011;674;45.552;-122.600;2023-05-20T07:56:24;7.60;;;4.40;;
1360;SDS011;674;45.552;-122.600;2023-05-20T07:58:54;7.60;;;4.07;;
1360;SDS011;674;45.552;-122.600;2023-05-20T08:01:26;6.80;;;3.40;;
1360;SDS011;674;45.552;-122.600;2023-05-20T08:03:54;5.27;;;3.40;;
1360;SDS011;674;45.552;-122.600;2023-05-20T08:06:23;4.17;;;3.20;;
1360;SDS011;674;45.552;-122.600;2023-05-20T08:08:54;7.70;;;3.33;;
1360;SDS011;674;45.552;-122.600;2023-05-20T08:11:23;5.30;;;3.50;;
1360;SDS011;674;45.552;-122.600;2023-05-20T08:13:51;4.50;;;3.60;;
1360;SDS011;674;45.552;-122.600;2023-05-20T08:16:20;7.70;;;3.23;;
1360;SDS011;674;45.552;-122.600;2023-05-20T08:18:49;4.70;;;3.03;;
1360;SDS011;674;45.552;-122.600;2023-05-20T08:21:17;4.97;;;2.50;;
1360;SDS011;674;45.552;-122.600;2023-05-20T08:23:45;6.20;;;3.20;;
1360;SDS011;674;45.552;-122.600;2023-05-20T08:26:14;5.77;;;2.60;;
1360;SDS011;674;45.552;-122.600;2023-05-20T08:28:43;3.97;;;2.60;;
1360;SDS011;674;45.552;-122.600;2023-05-20T08:31:11;7.50;;;2.93;;
1360;SDS011;674;45.552;-122.600;2023-05-20T08:33:40;6.30;;;3.83;;
1360;SDS011;674;45.552;-122.600;2023-05-20T08:36:08;4.30;;;3.00;;
1360;SDS011;674;45.552;-122.600;2023-05-20T08:38:37;5.37;;;3.20;;
1360;SDS011;674;45.552;-122.600;2023-05-20T08:41:05;4.70;;;2.77;;
1360;SDS011;674;45.552;-122.600;2023-05-20T08:43:33;7.13;;;3.03;;
1360;SDS011;674;45.552;-122.600;2023-05-20T08:46:02;6.47;;;2.60;;
1360;SDS011;674;45.552;-122.600;2023-05-20T08:48:33;3.37;;;2.67;;
1360;SDS011;674;45.552;-122.600;2023-05-20T08:51:03;4.50;;;2.73;;
1360;SDS011;674;45.552;-122.600;2023-05-20T08:53:32;6.03;;;2.90;;
1360;SDS011;674;45.552;-122.600;2023-05-20T08:56:01;5.10;;;2.80;;
1360;SDS011;674;45.552;-122.600;2023-05-20T08:58:29;3.50;;;2.40;;
1360;SDS011;674;45.552;-122.600;2023-05-20T09:00:59;4.70;;;2.83;;
1360;SDS011;674;45.552;-122.600;2023-05-20T09:03:28;3.73;;;2.60;;
1360;SDS011;674;45.552;-122.600;2023-05-20T09:06:06;5.97;;;2.17;;
1360;SDS011;674;45.552;-122.600;2023-05-20T09:08:35;3.70;;;2.40;;
1360;SDS011;674;45.552;-122.600;2023-05-20T09:11:03;5.37;;;2.70;;
1360;SDS011;674;45.552;-122.600;2023-05-20T09:13:32;5.30;;;2.67;;
1360;SDS011;674;45.552;-122.600;2023-05-20T09:16:00;3.83;;;2.40;;
1360;SDS011;674;45.552;-122.600;2023-05-20T09:18:29;4.87;;;2.90;;
1360;SDS011;674;45.552;-122.600;2023-05-20T09:21:03;5.07;;;2.80;;
1360;SDS011;674;45.552;-122.600;2023-05-20T09:23:35;5.93;;;2.27;;
1360;SDS011;674;45.552;-122.600;2023-05-20T09:26:04;5.60;;;3.07;;
1360;SDS011;674;45.552;-122.600;2023-05-20T09:28:33;6.97;;;3.00;;
1360;SDS011;674;45.552;-122.600;2023-05-20T09:31:04;4.93;;;2.60;;
1360;SDS011;674;45.552;-122.600;2023-05-20T09:33:33;6.23;;;3.30;;
1360;SDS011;674;45.552;-122.600;2023-05-20T09:36:03;4.50;;;2.60;;
1360;SDS011;674;45.552;-122.600;2023-05-20T09:38:35;4.03;;;2.53;;
1360;SDS011;674;45.552;-122.600;2023-05-20T09:41:06;3.93;;;2.40;;
1360;SDS011;674;45.552;-122.600;2023-05-20T09:43:40;4.07;;;2.60;;
1360;SDS011;674;45.552;-122.600;2023-05-20T09:46:09;5.07;;;3.10;;
1360;SDS011;674;45.552;-122.600;2023-05-20T09:48:38;5.17;;;2.60;;
1360;SDS011;674;45.552;-122.600;2023-05-20T09:51:07;4.40;;;2.60;;
1360;SDS011;674;45.552;-122.600;2023-05-20T09:53:36;4.73;;;2.50;;
1360;SDS011;674;45.552;-122.600;2023-05-20T09:56:04;4.30;;;2.77;;
1360;SDS011;674;45.552;-122.600;2023-05-20T09:58:34;3.30;;;2.23;;
1360;SDS011;674;45.552;-122.600;2023-05-20T10:01:04;3.73;;;2.20;;
1360;SDS011;674;45.552;-122.600;2023-05-20T10:03:34;4.80;;;2.83;;
1360;SDS011;674;45.552;-122.600;2023-05-20T10:11:58;3.40;;;2.00;;
1360;SDS011;674;45.552;-122.600;2023-05-20T10:17:36;3.90;;;2.40;;
1360;SDS011;674;45.552;-122.600;2023-05-20T10:20:15;6.50;;;2.87;;
1360;SDS011;674;45.552;-122.600;2023-05-20T10:22:43;4.47;;;2.80;;
1360;SDS011;674;45.552;-122.600;2023-05-20T10:25:26;5.30;;;2.53;;
1360;SDS011;674;45.552;-122.600;2023-05-20T10:28:06;4.70;;;2.90;;
1360;SDS011;674;45.552;-122.600;2023-05-20T10:30:35;6.13;;;2.77;;
1360;SDS011;674;45.552;-122.600;2023-05-20T10:33:06;4.03;;;2.40;;
1360;SDS011;674;45.552;-122.600;2023-05-20T10:43:11;8.03;;;2.83;;
1360;SDS011;674;45.552;-122.600;2023-05-20T10:49:22;4.70;;;2.07;;
1360;SDS011;674;45.552;-122.600;2023-05-20T10:55:34;3.97;;;2.30;;
1360;SDS011;674;45.552;-122.600;2023-05-20T11:01:46;7.17;;;2.63;;
1360;SDS011;674;45.552;-122.600;2023-05-20T11:08:02;3.57;;;2.13;;
1360;SDS011;674;45.552;-122.600;2023-05-20T11:14:30;6.17;;;2.20;;
1360;SDS011;674;45.552;-122.600;2023-05-20T11:20:46;4.03;;;2.30;;
1360;SDS011;674;45.552;-122.600;2023-05-20T11:26:56;3.63;;;2.43;;
1360;SDS011;674;45.552;-122.600;2023-05-20T11:33:05;5.83;;;2.13;;
1360;SDS011;674;45.552;-122.600;2023-05-20T11:43:46;3.77;;;2.10;;
1360;SDS011;674;45.552;-122.600;2023-05-20T11:50:16;4.57;;;2.40;;
1360;SDS011;674;45.552;-122.600;2023-05-20T11:56:33;3.47;;;2.13;;
1360;SDS011;674;45.552;-122.600;2023-05-20T12:02:48;4.67;;;2.07;;
1360;SDS011;674;45.552;-122.600;2023-05-20T12:09:00;3.40;;;2.10;;
1360;SDS011;674;45.552;-122.600;2023-05-20T12:15:14;5.40;;;3.07;;
1360;SDS011;674;45.552;-122.600;2023-05-20T12:21:30;5.83;;;2.70;;
1360;SDS011;674;45.552;-122.600;2023-05-20T12:27:47;5.77;;;2.43;;
1360;SDS011;674;45.552;-122.600;2023-05-20T12:34:03;6.03;;;3.03;;
1360;SDS011;674;45.552;-122.600;2023-05-20T12:44:18;5.20;;;2.73;;
1360;SDS011;674;45.552;-122.600;2023-05-20T12:50:27;4.07;;;2.47;;
1360;SDS011;674;45.552;-122.600;2023-05-20T12:56:43;4.70;;;2.50;;
1360;SDS011;674;45.552;-122.600;2023-05-20T13:02:56;4.80;;;3.10;;
1360;SDS011;674;45.552;-122.600;2023-05-20T13:09:05;7.30;;;2.97;;
1360;SDS011;674;45.552;-122.600;2023-05-20T13:15:15;8.27;;;2.70;;
1360;SDS011;674;45.552;-122.600;2023-05-20T13:21:25;3.73;;;2.90;;
1360;SDS011;674;45.552;-122.600;2023-05-20T13:27:35;5.77;;;3.67;;
1360;SDS011;674;45.552;-122.600;2023-05-20T13:33:50;5.80;;;3.30;;
1360;SDS011;674;45.552;-122.600;2023-05-20T13:43:54;7.03;;;3.90;;
1360;SDS011;674;45.552;-122.600;2023-05-20T13:50:10;5.20;;;3.63;;
1360;SDS011;674;45.552;-122.600;2023-05-20T13:56:26;6.77;;;3.27;;
1360;SDS011;674;45.552;-122.600;2023-05-20T14:02:36;5.20;;;2.83;;
1360;SDS011;674;45.552;-122.600;2023-05-20T14:08:52;5.43;;;3.40;;
1360;SDS011;674;45.552;-122.600;2023-05-20T14:15:04;6.70;;;3.07;;
1360;SDS011;674;45.552;-122.600;2023-05-20T14:21:13;8.77;;;3.83;;
1360;SDS011;674;45.552;-122.600;2023-05-20T14:27:23;7.57;;;3.23;;
1360;SDS011;674;45.552;-122.600;2023-05-20T14:33:32;4.80;;;3.33;;
1360;SDS011;674;45.552;-122.600;2023-05-20T14:43:29;11.43;;;4.10;;
1360;SDS011;674;45.552;-122.600;2023-05-20T14:49:45;4.80;;;3.30;;
1360;SDS011;674;45.552;-122.600;2023-05-20T14:56:03;6.03;;;3.30;;
1360;SDS011;674;45.552;-122.600;2023-05-20T15:02:13;8.13;;;3.37;;
1360;SDS011;674;45.552;-122.600;2023-05-20T15:08:29;6.40;;;3.87;;
1360;SDS011;674;45.552;-122.600;2023-05-20T15:14:45;7.30;;;3.83;;
1360;SDS011;674;45.552;-122.600;2023-05-20T15:20:55;5.80;;;3.13;;
1360;SDS011;674;45.552;-122.600;2023-05-20T15:27:04;6.30;;;3.67;;
1360;SDS011;674;45.552;-122.600;2023-05-20T15:33:14;5.43;;;3.03;;
1360;SDS011;674;45.552;-122.600;2023-05-20T15:43:18;5.07;;;3.40;;
1360;SDS011;674;45.552;-122.600;2023-05-20T15:49:34;4.40;;;3.40;;
1360;SDS011;674;45.552;-122.600;2023-05-20T15:55:50;5.10;;;3.40;;
1360;SDS011;674;45.552;-122.600;2023-05-20T16:02:06;5.63;;;3.30;;
1360;SDS011;674;45.552;-122.600;2023-05-20T16:12:14;5.70;;;3.70;;
1360;SDS011;674;45.552;-122.600;2023-05-20T16:18:33;6.60;;;3.00;;
1360;SDS011;674;45.552;-122.600;2023-05-20T16:24:43;9.03;;;3.90;;
1360;SDS011;674;45.552;-122.600;2023-05-20T16:30:53;6.00;;;3.73;;
1360;SDS011;674;45.552;-122.600;2023-05-20T16:37:02;6.73;;;3.67;;
1360;SDS011;674;45.552;-122.600;2023-05-20T16:47:42;6.13;;;4.13;;
1360;SDS011;674;45.552;-122.600;2023-05-20T16:53:52;9.07;;;3.53;;
1360;SDS011;674;45.552;-122.600;2023-05-20T17:00:02;5.37;;;3.20;;
1360;SDS011;674;45.552;-122.600;2023-05-20T17:10:50;6.00;;;3.87;;
1360;SDS011;674;45.552;-122.600;2023-05-20T17:27:27;5.07;;;3.60;;
1360;SDS011;674;45.552;-122.600;2023-05-20T17:37:23;6.03;;;3.90;;
1360;SDS011;674;45.552;-122.600;2023-05-20T17:47:39;6.17;;;3.80;;
1360;SDS011;674;45.552;-122.600;2023-05-20T17:53:56;6.50;;;3.57;;
1360;SDS011;674;45.552;-122.600;2023-05-20T18:00:05;4.77;;;3.03;;
1360;SDS011;674;45.552;-122.600;2023-05-20T18:06:16;5.17;;;3.27;;
1360;SDS011;674;45.552;-122.600;2023-05-20T18:16:21;5.73;;;3.37;;
1360;SDS011;674;45.552;-122.600;2023-05-20T18:22:37;6.43;;;3.00;;
1360;SDS011;674;45.552;-122.600;2023-05-20T18:28:54;5.40;;;3.30;;
1360;SDS011;674;45.552;-122.600;2023-05-20T18:50:47;3.20;;;2.80;;
1360;SDS011;674;45.552;-122.600;2023-05-20T18:56:57;4.50;;;3.40;;
1360;SDS011;674;45.552;-122.600;2023-05-20T19:21:22;4.93;;;3.40;;
1360;SDS011;674;45.552;-122.600;2023-05-20T19:31:19;5.20;;;3.30;;
1360;SDS011;674;45.552;-122.600;2023-05-20T19:41:17;6.90;;;3.87;;
1360;SDS011;674;45.552;-122.600;2023-05-20T19:51:34;5.63;;;4.07;;
1360;SDS011;674;45.552;-122.600;2023-05-20T19:57:50;5.57;;;4.20;;
1360;SDS011;674;45.552;-122.600;2023-05-20T20:04:07;4.77;;;4.27;;
1360;SDS011;674;45.552;-122.600;2023-05-20T20:10:24;4.80;;;4.10;;
1360;SDS011;674;45.552;-122.600;2023-05-20T20:16:33;3.83;;;3.37;;
1360;SDS011;674;45.552;-122.600;2023-05-20T20:22:43;5.50;;;3.90;;
1360;SDS011;674;45.552;-122.600;2023-05-20T20:28:56;5.00;;;4.50;;
1360;SDS011;674;45.552;-122.600;2023-05-20T20:35:05;4.80;;;3.37;;
1360;SDS011;674;45.552;-122.600;2023-05-20T20:41:15;4.23;;;3.23;;
1360;SDS011;674;45.552;-122.600;2023-05-20T20:51:18;5.43;;;3.80;;
1360;SDS011;674;45.552;-122.600;2023-05-20T20:57:27;4.20;;;2.67;;
1360;SDS011;674;45.552;-122.600;2023-05-20T21:03:38;3.70;;;3.10;;
1360;SDS011;674;45.552;-122.600;2023-05-20T21:06:11;4.60;;;3.10;;
1360;SDS011;674;45.552;-122.600;2023-05-20T21:08:40;5.07;;;3.60;;
1360;SDS011;674;45.552;-122.600;2023-05-20T21:11:08;5.60;;;3.93;;
1360;SDS011;674;45.552;-122.600;2023-05-20T21:13:37;5.97;;;3.00;;
1360;SDS011;674;45.552;-122.600;2023-05-20T21:16:06;5.43;;;3.20;;
1360;SDS011;674;45.552;-122.600;2023-05-20T21:18:35;3.27;;;2.80;;
1360;SDS011;674;45.552;-122.600;2023-05-20T21:21:03;4.07;;;3.67;;
1360;SDS011;674;45.552;-122.600;2023-05-20T21:23:36;3.27;;;2.97;;
1360;SDS011;674;45.552;-122.600;2023-05-20T21:26:05;3.43;;;2.83;;
1360;SDS011;674;45.552;-122.600;2023-05-20T21:28:34;7.03;;;3.40;;
1360;SDS011;674;45.552;-122.600;2023-05-20T21:31:02;4.50;;;3.10;;
1360;SDS011;674;45.552;-122.600;2023-05-20T21:33:30;4.33;;;3.70;;
1360;SDS011;674;45.552;-122.600;2023-05-20T21:35:59;5.20;;;3.80;;
1360;SDS011;674;45.552;-122.600;2023-05-20T21:38:27;4.50;;;3.30;;
1360;SDS011;674;45.552;-122.600;2023-05-20T21:40:56;4.20;;;3.27;;
1360;SDS011;674;45.552;-122.600;2023-05-20T21:43:24;5.00;;;3.50;;
1360;SDS011;674;45.552;-122.600;2023-05-20T21:45:53;3.90;;;3.50;;
1360;SDS011;674;45.552;-122.600;2023-05-20T21:48:21;6.07;;;4.13;;
1360;SDS011;674;45.552;-122.600;2023-05-20T21:50:50;3.80;;;3.40;;
1360;SDS011;674;45.552;-122.600;2023-05-20T21:53:18;5.80;;;3.37;;
1360;SDS011;674;45.552;-122.600;2023-05-20T21:55:47;5.77;;;4.53;;
1360;SDS011;674;45.552;-122.600;2023-05-20T21:58:15;7.00;;;4.07;;
1360;SDS011;674;45.552;-122.600;2023-05-20T22:00:43;6.87;;;4.30;;
1360;SDS011;674;45.552;-122.600;2023-05-20T22:03:12;5.60;;;3.90;;
1360;SDS011;674;45.552;-122.600;2023-05-20T22:05:41;4.50;;;4.10;;
1360;SDS011;674;45.552;-122.600;2023-05-20T22:08:12;5.17;;;4.40;;
1360;SDS011;674;45.552;-122.600;2023-05-20T22:10:40;4.60;;;4.00;;
1360;SDS011;674;45.552;-122.600;2023-05-20T22:13:10;5.53;;;4.17;;